sensor_id;sensor_type;location;lat;lon;timestamp;temperature;humidity
83500;DHT22;73433;50.908;13.746;2024-03-02T00:00:16;8.50;95.50
83500;DHT22;73433;50.908;13.746;2024-03-02T00:02:44;8.50;95.60
83500;DHT22;73433;50.908;13.746;2024-03-02T00:05:13;8.50;95.60
83500;DHT22;73433;50.908;13.746;2024-03-02T00:07:47;8.50;95.50
83500;DHT22;73433;50.908;13.746;2024-03-02T00:10:21;8.50;95.30
83500;DHT22;73433;50.908;13.746;2024-03-02T00:12:52;8.50;95.10
83500;DHT22;73433;50.908;13.746;2024-03-02T00:18:12;8.40;93.80
83500;DHT22;73433;50.908;13.746;2024-03-02T00:20:40;8.40;93.70
83500;DHT22;73433;50.908;13.746;2024-03-02T00:23:09;8.40;94.30
83500;DHT22;73433;50.908;13.746;2024-03-02T00:25:45;8.40;94.30
83500;DHT22;73433;50.908;13.746;2024-03-02T00:28:19;8.40;94.60
83500;DHT22;73433;50.908;13.746;2024-03-02T00:30:55;8.40;94.80
83500;DHT22;73433;50.908;13.746;2024-03-02T00:33:27;8.40;94.60
83500;DHT22;73433;50.908;13.746;2024-03-02T00:35:56;8.40;94.10
83500;DHT22;73433;50.908;13.746;2024-03-02T00:38:24;8.40;94.40
83500;DHT22;73433;50.908;13.746;2024-03-02T00:40:51;8.40;94.70
83500;DHT22;73433;50.908;13.746;2024-03-02T00:43:38;8.30;95.20
83500;DHT22;73433;50.908;13.746;2024-03-02T00:46:19;8.30;95.30
83500;DHT22;73433;50.908;13.746;2024-03-02T00:48:55;8.30;95.60
83500;DHT22;73433;50.908;13.746;2024-03-02T00:51:25;8.30;95.50
83500;DHT22;73433;50.908;13.746;2024-03-02T00:53:54;8.30;95.00
83500;DHT22;73433;50.908;13.746;2024-03-02T00:56:24;8.40;95.20
83500;DHT22;73433;50.908;13.746;2024-03-02T00:58:52;8.40;95.30
83500;DHT22;73433;50.908;13.746;2024-03-02T01:01:19;8.50;95.10
83500;DHT22;73433;50.908;13.746;2024-03-02T01:03:47;8.40;94.80
83500;DHT22;73433;50.908;13.746;2024-03-02T01:06:16;8.50;95.00
83500;DHT22;73433;50.908;13.746;2024-03-02T01:08:44;8.50;95.10
83500;DHT22;73433;50.908;13.746;2024-03-02T01:11:12;8.50;95.00
83500;DHT22;73433;50.908;13.746;2024-03-02T01:13:39;8.50;94.60
83500;DHT22;73433;50.908;13.746;2024-03-02T01:16:06;8.50;94.60
83500;DHT22;73433;50.908;13.746;2024-03-02T01:18:33;8.50;94.60
83500;DHT22;73433;50.908;13.746;2024-03-02T01:21:01;8.50;94.70
83500;DHT22;73433;50.908;13.746;2024-03-02T01:23:28;8.50;95.00
83500;DHT22;73433;50.908;13.746;2024-03-02T01:25:55;8.50;94.80
83500;DHT22;73433;50.908;13.746;2024-03-02T01:28:23;8.50;95.80
83500;DHT22;73433;50.908;13.746;2024-03-02T01:30:50;8.40;94.60
83500;DHT22;73433;50.908;13.746;2024-03-02T01:33:20;8.50;94.10
83500;DHT22;73433;50.908;13.746;2024-03-02T01:35:48;8.40;94.40
83500;DHT22;73433;50.908;13.746;2024-03-02T01:38:15;8.40;94.50
83500;DHT22;73433;50.908;13.746;2024-03-02T01:40:42;8.40;94.60
83500;DHT22;73433;50.908;13.746;2024-03-02T01:43:11;8.40;94.00
83500;DHT22;73433;50.908;13.746;2024-03-02T01:45:39;8.40;93.60
83500;DHT22;73433;50.908;13.746;2024-03-02T01:48:07;8.40;94.10
83500;DHT22;73433;50.908;13.746;2024-03-02T01:50:35;8.30;94.00
83500;DHT22;73433;50.908;13.746;2024-03-02T01:53:03;8.30;93.80
83500;DHT22;73433;50.908;13.746;2024-03-02T01:55:30;8.30;93.60
83500;DHT22;73433;50.908;13.746;2024-03-02T01:57:58;8.30;93.90
83500;DHT22;73433;50.908;13.746;2024-03-02T02:00:26;8.30;94.30
83500;DHT22;73433;50.908;13.746;2024-03-02T02:02:54;8.30;94.40
83500;DHT22;73433;50.908;13.746;2024-03-02T02:05:22;8.30;94.60
83500;DHT22;73433;50.908;13.746;2024-03-02T02:07:49;8.30;94.40
83500;DHT22;73433;50.908;13.746;2024-03-02T02:10:17;8.30;94.60
83500;DHT22;73433;50.908;13.746;2024-03-02T02:12:44;8.30;94.90
83500;DHT22;73433;50.908;13.746;2024-03-02T02:15:28;8.30;95.00
83500;DHT22;73433;50.908;13.746;2024-03-02T02:17:57;8.30;95.00
83500;DHT22;73433;50.908;13.746;2024-03-02T02:20:25;8.40;94.90
83500;DHT22;73433;50.908;13.746;2024-03-02T02:23:03;8.40;94.90
83500;DHT22;73433;50.908;13.746;2024-03-02T02:25:31;8.40;94.70
83500;DHT22;73433;50.908;13.746;2024-03-02T02:27:58;8.40;94.90
83500;DHT22;73433;50.908;13.746;2024-03-02T02:30:28;8.40;94.70
83500;DHT22;73433;50.908;13.746;2024-03-02T02:32:56;8.40;94.60
83500;DHT22;73433;50.908;13.746;2024-03-02T02:35:24;8.40;94.80
83500;DHT22;73433;50.908;13.746;2024-03-02T02:37:53;8.40;94.90
83500;DHT22;73433;50.908;13.746;2024-03-02T02:40:21;8.40;94.90
83500;DHT22;73433;50.908;13.746;2024-03-02T02:42:49;8.40;94.70
83500;DHT22;73433;50.908;13.746;2024-03-02T02:45:16;8.40;94.80
83500;DHT22;73433;50.908;13.746;2024-03-02T02:47:44;8.40;94.90
83500;DHT22;73433;50.908;13.746;2024-03-02T02:50:12;8.40;94.90
83500;DHT22;73433;50.908;13.746;2024-03-02T02:52:41;8.40;94.80
83500;DHT22;73433;50.908;13.746;2024-03-02T02:55:11;8.40;94.90
83500;DHT22;73433;50.908;13.746;2024-03-02T02:57:40;8.40;95.00
83500;DHT22;73433;50.908;13.746;2024-03-02T03:00:14;8.40;94.90
83500;DHT22;73433;50.908;13.746;2024-03-02T03:02:45;8.40;94.90
83500;DHT22;73433;50.908;13.746;2024-03-02T03:05:15;8.40;94.80
83500;DHT22;73433;50.908;13.746;2024-03-02T03:07:42;8.40;94.80
83500;DHT22;73433;50.908;13.746;2024-03-02T03:10:11;8.40;94.90
83500;DHT22;73433;50.908;13.746;2024-03-02T03:12:39;8.40;94.90
83500;DHT22;73433;50.908;13.746;2024-03-02T03:15:09;8.50;95.00
83500;DHT22;73433;50.908;13.746;2024-03-02T03:17:36;8.40;94.80
83500;DHT22;73433;50.908;13.746;2024-03-02T03:20:05;8.40;94.80
83500;DHT22;73433;50.908;13.746;2024-03-02T03:22:33;8.40;94.70
83500;DHT22;73433;50.908;13.746;2024-03-02T03:25:02;8.40;94.60
83500;DHT22;73433;50.908;13.746;2024-03-02T03:27:30;8.40;94.70
83500;DHT22;73433;50.908;13.746;2024-03-02T03:29:58;8.30;94.70
83500;DHT22;73433;50.908;13.746;2024-03-02T03:32:25;8.30;94.80
83500;DHT22;73433;50.908;13.746;2024-03-02T03:34:52;8.30;94.90
83500;DHT22;73433;50.908;13.746;2024-03-02T03:37:19;8.30;94.90
83500;DHT22;73433;50.908;13.746;2024-03-02T03:39:46;8.30;94.60
83500;DHT22;73433;50.908;13.746;2024-03-02T03:42:14;8.20;93.90
83500;DHT22;73433;50.908;13.746;2024-03-02T03:44:41;8.20;94.30
83500;DHT22;73433;50.908;13.746;2024-03-02T03:47:09;8.10;94.90
83500;DHT22;73433;50.908;13.746;2024-03-02T03:49:36;8.10;95.40
83500;DHT22;73433;50.908;13.746;2024-03-02T03:52:03;8.00;95.70
83500;DHT22;73433;50.908;13.746;2024-03-02T03:54:31;8.00;95.70
83500;DHT22;73433;50.908;13.746;2024-03-02T03:56:58;8.00;95.70
83500;DHT22;73433;50.908;13.746;2024-03-02T03:59:25;8.00;96.00
83500;DHT22;73433;50.908;13.746;2024-03-02T04:01:52;7.90;96.10
83500;DHT22;73433;50.908;13.746;2024-03-02T04:04:20;7.90;96.10
83500;DHT22;73433;50.908;13.746;2024-03-02T04:06:47;7.90;96.20
83500;DHT22;73433;50.908;13.746;2024-03-02T04:09:14;7.90;96.60
83500;DHT22;73433;50.908;13.746;2024-03-02T04:11:42;7.90;96.80
83500;DHT22;73433;50.908;13.746;2024-03-02T04:14:09;7.90;96.80
83500;DHT22;73433;50.908;13.746;2024-03-02T04:16:37;7.80;96.80
83500;DHT22;73433;50.908;13.746;2024-03-02T04:19:04;7.80;96.80
83500;DHT22;73433;50.908;13.746;2024-03-02T04:21:31;7.80;96.90
83500;DHT22;73433;50.908;13.746;2024-03-02T04:23:59;7.70;97.10
83500;DHT22;73433;50.908;13.746;2024-03-02T04:26:26;7.70;97.20
83500;DHT22;73433;50.908;13.746;2024-03-02T04:28:54;7.70;97.50
83500;DHT22;73433;50.908;13.746;2024-03-02T04:31:21;7.60;97.40
83500;DHT22;73433;50.908;13.746;2024-03-02T04:33:48;7.60;97.60
83500;DHT22;73433;50.908;13.746;2024-03-02T04:36:15;7.60;97.80
83500;DHT22;73433;50.908;13.746;2024-03-02T04:38:43;7.60;98.00
83500;DHT22;73433;50.908;13.746;2024-03-02T04:41:11;7.50;98.10
83500;DHT22;73433;50.908;13.746;2024-03-02T04:43:38;7.50;98.20
83500;DHT22;73433;50.908;13.746;2024-03-02T04:46:06;7.50;98.30
83500;DHT22;73433;50.908;13.746;2024-03-02T04:48:34;7.50;98.40
83500;DHT22;73433;50.908;13.746;2024-03-02T04:51:01;7.50;98.50
83500;DHT22;73433;50.908;13.746;2024-03-02T04:53:28;7.50;98.50
83500;DHT22;73433;50.908;13.746;2024-03-02T04:55:56;7.50;98.80
83500;DHT22;73433;50.908;13.746;2024-03-02T04:58:42;7.50;98.70
83500;DHT22;73433;50.908;13.746;2024-03-02T05:01:09;7.50;98.70
83500;DHT22;73433;50.908;13.746;2024-03-02T05:03:36;7.50;98.70
83500;DHT22;73433;50.908;13.746;2024-03-02T05:06:04;7.50;98.80
83500;DHT22;73433;50.908;13.746;2024-03-02T05:08:31;7.40;98.70
83500;DHT22;73433;50.908;13.746;2024-03-02T05:10:58;7.40;98.80
83500;DHT22;73433;50.908;13.746;2024-03-02T05:13:45;7.40;98.70
83500;DHT22;73433;50.908;13.746;2024-03-02T05:16:13;7.40;98.80
83500;DHT22;73433;50.908;13.746;2024-03-02T05:18:41;7.40;98.90
83500;DHT22;73433;50.908;13.746;2024-03-02T05:21:08;7.40;98.90
83500;DHT22;73433;50.908;13.746;2024-03-02T05:23:35;7.40;98.90
83500;DHT22;73433;50.908;13.746;2024-03-02T05:26:02;7.40;98.90
83500;DHT22;73433;50.908;13.746;2024-03-02T05:28:30;7.40;98.80
83500;DHT22;73433;50.908;13.746;2024-03-02T05:30:57;7.50;99.10
83500;DHT22;73433;50.908;13.746;2024-03-02T05:33:24;7.50;99.00
83500;DHT22;73433;50.908;13.746;2024-03-02T05:35:52;7.40;98.90
83500;DHT22;73433;50.908;13.746;2024-03-02T05:38:19;7.50;99.10
83500;DHT22;73433;50.908;13.746;2024-03-02T05:40:46;7.50;99.00
83500;DHT22;73433;50.908;13.746;2024-03-02T05:43:13;7.50;99.10
83500;DHT22;73433;50.908;13.746;2024-03-02T05:45:40;7.50;98.90
83500;DHT22;73433;50.908;13.746;2024-03-02T05:48:08;7.50;98.90
83500;DHT22;73433;50.908;13.746;2024-03-02T05:50:36;7.50;98.90
83500;DHT22;73433;50.908;13.746;2024-03-02T05:53:03;7.50;98.80
83500;DHT22;73433;50.908;13.746;2024-03-02T05:55:31;7.50;98.80
83500;DHT22;73433;50.908;13.746;2024-03-02T05:57:58;7.50;98.80
83500;DHT22;73433;50.908;13.746;2024-03-02T06:00:25;7.60;98.80
83500;DHT22;73433;50.908;13.746;2024-03-02T06:02:52;7.60;98.70
83500;DHT22;73433;50.908;13.746;2024-03-02T06:05:20;7.60;98.50
83500;DHT22;73433;50.908;13.746;2024-03-02T06:07:47;7.60;98.20
83500;DHT22;73433;50.908;13.746;2024-03-02T06:10:14;7.70;98.10
83500;DHT22;73433;50.908;13.746;2024-03-02T06:12:42;7.80;97.80
83500;DHT22;73433;50.908;13.746;2024-03-02T06:15:10;7.80;97.50
83500;DHT22;73433;50.908;13.746;2024-03-02T06:17:37;7.80;97.20
83500;DHT22;73433;50.908;13.746;2024-03-02T06:20:05;7.80;96.90
83500;DHT22;73433;50.908;13.746;2024-03-02T06:22:35;7.90;96.80
83500;DHT22;73433;50.908;13.746;2024-03-02T06:25:02;7.90;96.70
83500;DHT22;73433;50.908;13.746;2024-03-02T06:27:29;7.90;96.60
83500;DHT22;73433;50.908;13.746;2024-03-02T06:29:56;7.90;96.40
83500;DHT22;73433;50.908;13.746;2024-03-02T06:32:24;7.90;96.10
83500;DHT22;73433;50.908;13.746;2024-03-02T06:34:52;8.00;96.20
83500;DHT22;73433;50.908;13.746;2024-03-02T06:37:20;8.00;96.10
83500;DHT22;73433;50.908;13.746;2024-03-02T06:39:47;8.00;96.00
83500;DHT22;73433;50.908;13.746;2024-03-02T06:42:14;8.00;96.80
83500;DHT22;73433;50.908;13.746;2024-03-02T06:44:41;8.00;95.90
83500;DHT22;73433;50.908;13.746;2024-03-02T06:47:09;8.00;95.90
83500;DHT22;73433;50.908;13.746;2024-03-02T06:49:36;8.00;95.80
83500;DHT22;73433;50.908;13.746;2024-03-02T06:52:03;8.00;95.70
83500;DHT22;73433;50.908;13.746;2024-03-02T06:54:30;8.00;95.50
83500;DHT22;73433;50.908;13.746;2024-03-02T06:56:57;8.00;95.40
83500;DHT22;73433;50.908;13.746;2024-03-02T06:59:24;8.00;95.30
83500;DHT22;73433;50.908;13.746;2024-03-02T07:01:52;8.00;95.20
83500;DHT22;73433;50.908;13.746;2024-03-02T07:04:19;8.00;94.90
83500;DHT22;73433;50.908;13.746;2024-03-02T07:06:46;8.00;94.80
83500;DHT22;73433;50.908;13.746;2024-03-02T07:09:14;8.00;94.70
83500;DHT22;73433;50.908;13.746;2024-03-02T07:11:41;8.00;94.60
83500;DHT22;73433;50.908;13.746;2024-03-02T07:14:08;8.00;94.60
83500;DHT22;73433;50.908;13.746;2024-03-02T07:16:37;8.00;95.30
83500;DHT22;73433;50.908;13.746;2024-03-02T07:19:06;8.00;94.60
83500;DHT22;73433;50.908;13.746;2024-03-02T07:21:34;8.00;94.40
83500;DHT22;73433;50.908;13.746;2024-03-02T07:24:01;8.00;94.50
83500;DHT22;73433;50.908;13.746;2024-03-02T07:26:31;8.00;94.50
83500;DHT22;73433;50.908;13.746;2024-03-02T07:29:02;8.00;94.40
83500;DHT22;73433;50.908;13.746;2024-03-02T07:31:29;8.00;94.60
83500;DHT22;73433;50.908;13.746;2024-03-02T07:33:56;8.00;95.00
83500;DHT22;73433;50.908;13.746;2024-03-02T07:36:24;8.00;95.30
83500;DHT22;73433;50.908;13.746;2024-03-02T07:38:51;8.00;95.40
83500;DHT22;73433;50.908;13.746;2024-03-02T07:41:18;8.00;95.50
83500;DHT22;73433;50.908;13.746;2024-03-02T07:43:45;8.00;95.60
83500;DHT22;73433;50.908;13.746;2024-03-02T07:46:12;8.00;96.10
83500;DHT22;73433;50.908;13.746;2024-03-02T07:48:42;8.00;96.40
83500;DHT22;73433;50.908;13.746;2024-03-02T07:51:09;8.00;96.70
83500;DHT22;73433;50.908;13.746;2024-03-02T07:53:36;8.00;96.90
83500;DHT22;73433;50.908;13.746;2024-03-02T07:56:04;8.00;97.20
83500;DHT22;73433;50.908;13.746;2024-03-02T07:58:31;8.00;97.30
83500;DHT22;73433;50.908;13.746;2024-03-02T08:01:00;8.00;97.40
83500;DHT22;73433;50.908;13.746;2024-03-02T08:03:28;8.00;97.50
83500;DHT22;73433;50.908;13.746;2024-03-02T08:05:56;8.00;97.60
83500;DHT22;73433;50.908;13.746;2024-03-02T08:08:23;8.00;97.60
83500;DHT22;73433;50.908;13.746;2024-03-02T08:10:50;8.00;97.70
83500;DHT22;73433;50.908;13.746;2024-03-02T08:13:18;8.10;97.80
83500;DHT22;73433;50.908;13.746;2024-03-02T08:15:45;8.10;97.80
83500;DHT22;73433;50.908;13.746;2024-03-02T08:18:12;8.10;97.70
83500;DHT22;73433;50.908;13.746;2024-03-02T08:20:40;8.10;97.80
83500;DHT22;73433;50.908;13.746;2024-03-02T08:23:08;8.20;97.80
83500;DHT22;73433;50.908;13.746;2024-03-02T08:25:35;8.20;97.70
83500;DHT22;73433;50.908;13.746;2024-03-02T08:28:02;8.30;97.70
83500;DHT22;73433;50.908;13.746;2024-03-02T08:30:29;8.30;97.30
83500;DHT22;73433;50.908;13.746;2024-03-02T08:32:57;8.30;97.00
83500;DHT22;73433;50.908;13.746;2024-03-02T08:35:24;8.40;96.60
83500;DHT22;73433;50.908;13.746;2024-03-02T08:37:51;8.40;96.30
83500;DHT22;73433;50.908;13.746;2024-03-02T08:40:18;8.40;96.00
83500;DHT22;73433;50.908;13.746;2024-03-02T08:42:46;8.50;95.70
83500;DHT22;73433;50.908;13.746;2024-03-02T08:45:14;8.50;95.20
83500;DHT22;73433;50.908;13.746;2024-03-02T08:47:41;8.50;94.90
83500;DHT22;73433;50.908;13.746;2024-03-02T08:50:09;8.60;94.70
83500;DHT22;73433;50.908;13.746;2024-03-02T08:52:36;8.60;94.50
83500;DHT22;73433;50.908;13.746;2024-03-02T08:55:04;8.60;94.40
83500;DHT22;73433;50.908;13.746;2024-03-02T08:57:31;8.70;94.30
83500;DHT22;73433;50.908;13.746;2024-03-02T08:59:59;8.80;94.30
83500;DHT22;73433;50.908;13.746;2024-03-02T09:02:27;8.90;93.50
83500;DHT22;73433;50.908;13.746;2024-03-02T09:04:54;8.90;93.20
83500;DHT22;73433;50.908;13.746;2024-03-02T09:07:21;9.00;92.50
83500;DHT22;73433;50.908;13.746;2024-03-02T09:09:48;9.10;92.10
83500;DHT22;73433;50.908;13.746;2024-03-02T09:12:16;9.10;91.60
83500;DHT22;73433;50.908;13.746;2024-03-02T09:14:43;9.20;91.30
83500;DHT22;73433;50.908;13.746;2024-03-02T09:17:10;9.20;91.20
83500;DHT22;73433;50.908;13.746;2024-03-02T09:19:39;9.20;91.00
83500;DHT22;73433;50.908;13.746;2024-03-02T09:22:06;9.30;90.90
83500;DHT22;73433;50.908;13.746;2024-03-02T09:24:33;9.30;90.30
83500;DHT22;73433;50.908;13.746;2024-03-02T09:27:00;9.40;90.00
83500;DHT22;73433;50.908;13.746;2024-03-02T09:29:28;9.40;90.00
83500;DHT22;73433;50.908;13.746;2024-03-02T09:31:56;9.40;89.60
83500;DHT22;73433;50.908;13.746;2024-03-02T09:34:23;9.40;89.50
83500;DHT22;73433;50.908;13.746;2024-03-02T09:36:51;9.40;89.40
83500;DHT22;73433;50.908;13.746;2024-03-02T09:39:19;9.40;89.00
83500;DHT22;73433;50.908;13.746;2024-03-02T09:41:47;9.40;89.10
83500;DHT22;73433;50.908;13.746;2024-03-02T09:44:14;9.40;88.90
83500;DHT22;73433;50.908;13.746;2024-03-02T09:46:42;9.40;88.70
83500;DHT22;73433;50.908;13.746;2024-03-02T09:49:12;9.40;88.80
83500;DHT22;73433;50.908;13.746;2024-03-02T09:51:40;9.40;88.40
83500;DHT22;73433;50.908;13.746;2024-03-02T09:54:13;9.30;88.40
83500;DHT22;73433;50.908;13.746;2024-03-02T09:56:50;9.30;88.20
83500;DHT22;73433;50.908;13.746;2024-03-02T09:59:18;9.40;88.30
83500;DHT22;73433;50.908;13.746;2024-03-02T10:02:03;9.40;88.30
83500;DHT22;73433;50.908;13.746;2024-03-02T10:04:30;9.40;88.20
83500;DHT22;73433;50.908;13.746;2024-03-02T10:07:16;9.40;88.00
83500;DHT22;73433;50.908;13.746;2024-03-02T10:09:45;9.40;88.10
83500;DHT22;73433;50.908;13.746;2024-03-02T10:12:14;9.50;88.50
83500;DHT22;73433;50.908;13.746;2024-03-02T10:14:42;9.50;88.20
83500;DHT22;73433;50.908;13.746;2024-03-02T10:17:12;9.60;87.90
83500;DHT22;73433;50.908;13.746;2024-03-02T10:19:39;9.60;87.70
83500;DHT22;73433;50.908;13.746;2024-03-02T10:22:08;9.60;87.20
83500;DHT22;73433;50.908;13.746;2024-03-02T10:24:37;9.60;86.90
83500;DHT22;73433;50.908;13.746;2024-03-02T10:27:25;9.60;86.30
83500;DHT22;73433;50.908;13.746;2024-03-02T10:29:53;9.60;86.70
83500;DHT22;73433;50.908;13.746;2024-03-02T10:32:23;9.70;86.60
83500;DHT22;73433;50.908;13.746;2024-03-02T10:34:50;9.70;86.10
83500;DHT22;73433;50.908;13.746;2024-03-02T10:37:17;9.80;86.20
83500;DHT22;73433;50.908;13.746;2024-03-02T10:39:46;9.90;85.80
83500;DHT22;73433;50.908;13.746;2024-03-02T10:42:14;9.90;84.60
83500;DHT22;73433;50.908;13.746;2024-03-02T10:44:42;10.10;85.00
83500;DHT22;73433;50.908;13.746;2024-03-02T10:47:12;10.20;85.10
83500;DHT22;73433;50.908;13.746;2024-03-02T10:49:42;10.50;84.90
83500;DHT22;73433;50.908;13.746;2024-03-02T10:52:10;11.00;85.20
83500;DHT22;73433;50.908;13.746;2024-03-02T10:54:38;11.80;84.70
83500;DHT22;73433;50.908;13.746;2024-03-02T10:57:08;12.70;81.50
83500;DHT22;73433;50.908;13.746;2024-03-02T10:59:53;13.30;77.00
83500;DHT22;73433;50.908;13.746;2024-03-02T11:02:24;13.50;73.60
83500;DHT22;73433;50.908;13.746;2024-03-02T11:04:55;13.40;71.40
83500;DHT22;73433;50.908;13.746;2024-03-02T11:07:23;13.10;71.20
83500;DHT22;73433;50.908;13.746;2024-03-02T11:09:57;12.90;72.00
83500;DHT22;73433;50.908;13.746;2024-03-02T11:12:29;12.90;72.70
83500;DHT22;73433;50.908;13.746;2024-03-02T11:14:58;12.90;72.80
83500;DHT22;73433;50.908;13.746;2024-03-02T11:17:27;12.90;72.50
83500;DHT22;73433;50.908;13.746;2024-03-02T11:19:55;12.90;72.80
83500;DHT22;73433;50.908;13.746;2024-03-02T11:22:22;13.10;72.50
83500;DHT22;73433;50.908;13.746;2024-03-02T11:24:51;13.20;72.50
83500;DHT22;73433;50.908;13.746;2024-03-02T11:33:08;13.40;70.10
83500;DHT22;73433;50.908;13.746;2024-03-02T11:35:41;13.40;70.10
83500;DHT22;73433;50.908;13.746;2024-03-02T11:38:15;13.60;70.60
83500;DHT22;73433;50.908;13.746;2024-03-02T11:40:44;14.10;71.40
83500;DHT22;73433;50.908;13.746;2024-03-02T11:43:12;14.70;69.90
83500;DHT22;73433;50.908;13.746;2024-03-02T11:45:42;15.10;67.70
83500;DHT22;73433;50.908;13.746;2024-03-02T11:48:14;15.40;66.10
83500;DHT22;73433;50.908;13.746;2024-03-02T11:50:47;15.60;64.50
83500;DHT22;73433;50.908;13.746;2024-03-02T11:53:14;15.50;62.80
83500;DHT22;73433;50.908;13.746;2024-03-02T11:55:42;15.30;62.10
83500;DHT22;73433;50.908;13.746;2024-03-02T11:58:15;15.00;62.30
83500;DHT22;73433;50.908;13.746;2024-03-02T12:00:50;14.60;63.80
83500;DHT22;73433;50.908;13.746;2024-03-02T12:03:24;14.20;63.20
83500;DHT22;73433;50.908;13.746;2024-03-02T12:05:53;13.90;64.10
83500;DHT22;73433;50.908;13.746;2024-03-02T12:08:21;13.60;65.50
83500;DHT22;73433;50.908;13.746;2024-03-02T12:10:59;13.50;65.70
83500;DHT22;73433;50.908;13.746;2024-03-02T12:13:31;13.40;66.10
83500;DHT22;73433;50.908;13.746;2024-03-02T12:15:58;13.30;66.50
83500;DHT22;73433;50.908;13.746;2024-03-02T12:18:26;13.10;66.50
83500;DHT22;73433;50.908;13.746;2024-03-02T12:20:54;13.00;66.80
83500;DHT22;73433;50.908;13.746;2024-03-02T12:23:25;12.90;67.40
83500;DHT22;73433;50.908;13.746;2024-03-02T12:25:52;12.80;67.50
83500;DHT22;73433;50.908;13.746;2024-03-02T12:28:20;12.70;68.10
83500;DHT22;73433;50.908;13.746;2024-03-02T12:30:48;12.80;69.00
83500;DHT22;73433;50.908;13.746;2024-03-02T12:33:16;13.00;68.60
83500;DHT22;73433;50.908;13.746;2024-03-02T12:35:44;13.10;67.80
83500;DHT22;73433;50.908;13.746;2024-03-02T12:38:11;13.10;66.80
83500;DHT22;73433;50.908;13.746;2024-03-02T12:40:38;12.90;66.50
83500;DHT22;73433;50.908;13.746;2024-03-02T12:43:06;12.70;66.80
83500;DHT22;73433;50.908;13.746;2024-03-02T12:45:36;12.50;67.20
83500;DHT22;73433;50.908;13.746;2024-03-02T12:48:04;12.30;67.80
83500;DHT22;73433;50.908;13.746;2024-03-02T12:50:33;12.10;68.60
83500;DHT22;73433;50.908;13.746;2024-03-02T12:53:01;12.10;69.70
83500;DHT22;73433;50.908;13.746;2024-03-02T12:55:28;12.20;69.90
83500;DHT22;73433;50.908;13.746;2024-03-02T12:57:56;12.40;70.10
83500;DHT22;73433;50.908;13.746;2024-03-02T13:00:26;12.60;70.40
83500;DHT22;73433;50.908;13.746;2024-03-02T13:02:53;12.90;69.20
83500;DHT22;73433;50.908;13.746;2024-03-02T13:05:21;13.00;68.40
83500;DHT22;73433;50.908;13.746;2024-03-02T13:07:49;13.10;67.60
83500;DHT22;73433;50.908;13.746;2024-03-02T13:10:17;13.10;67.20
83500;DHT22;73433;50.908;13.746;2024-03-02T13:12:45;13.10;67.40
83500;DHT22;73433;50.908;13.746;2024-03-02T13:15:12;13.10;67.00
83500;DHT22;73433;50.908;13.746;2024-03-02T13:17:45;13.00;66.80
83500;DHT22;73433;50.908;13.746;2024-03-02T13:20:15;13.00;67.30
83500;DHT22;73433;50.908;13.746;2024-03-02T13:22:44;12.90;67.80
83500;DHT22;73433;50.908;13.746;2024-03-02T13:25:11;12.90;67.60
83500;DHT22;73433;50.908;13.746;2024-03-02T13:27:39;12.90;68.00
83500;DHT22;73433;50.908;13.746;2024-03-02T13:30:07;12.80;67.70
83500;DHT22;73433;50.908;13.746;2024-03-02T13:32:36;12.70;67.80
83500;DHT22;73433;50.908;13.746;2024-03-02T13:35:03;12.60;68.50
83500;DHT22;73433;50.908;13.746;2024-03-02T13:37:30;12.60;68.20
83500;DHT22;73433;50.908;13.746;2024-03-02T13:39:57;12.50;67.90
83500;DHT22;73433;50.908;13.746;2024-03-02T13:42:25;12.50;68.30
83500;DHT22;73433;50.908;13.746;2024-03-02T13:44:53;12.50;68.30
83500;DHT22;73433;50.908;13.746;2024-03-02T13:47:20;12.40;68.40
83500;DHT22;73433;50.908;13.746;2024-03-02T13:49:48;12.30;68.10
83500;DHT22;73433;50.908;13.746;2024-03-02T13:52:16;12.20;68.50
83500;DHT22;73433;50.908;13.746;2024-03-02T13:54:47;12.10;69.00
83500;DHT22;73433;50.908;13.746;2024-03-02T13:57:15;11.90;69.20
83500;DHT22;73433;50.908;13.746;2024-03-02T13:59:44;11.80;69.90
83500;DHT22;73433;50.908;13.746;2024-03-02T14:02:12;11.70;70.20
83500;DHT22;73433;50.908;13.746;2024-03-02T14:04:39;11.60;70.50
83500;DHT22;73433;50.908;13.746;2024-03-02T14:07:07;11.50;70.80
83500;DHT22;73433;50.908;13.746;2024-03-02T14:09:35;11.30;71.40
83500;DHT22;73433;50.908;13.746;2024-03-02T14:12:04;11.30;71.90
83500;DHT22;73433;50.908;13.746;2024-03-02T14:14:32;11.20;72.30
83500;DHT22;73433;50.908;13.746;2024-03-02T14:17:00;11.10;72.50
83500;DHT22;73433;50.908;13.746;2024-03-02T14:19:30;11.00;72.80
83500;DHT22;73433;50.908;13.746;2024-03-02T14:21:58;10.90;73.30
83500;DHT22;73433;50.908;13.746;2024-03-02T14:24:26;10.80;73.70
83500;DHT22;73433;50.908;13.746;2024-03-02T14:26:55;10.70;74.00
83500;DHT22;73433;50.908;13.746;2024-03-02T14:29:36;10.70;74.10
83500;DHT22;73433;50.908;13.746;2024-03-02T14:32:05;10.60;74.30
83500;DHT22;73433;50.908;13.746;2024-03-02T14:34:33;10.60;74.50
83500;DHT22;73433;50.908;13.746;2024-03-02T14:37:02;10.50;75.00
83500;DHT22;73433;50.908;13.746;2024-03-02T14:39:30;10.60;75.00
83500;DHT22;73433;50.908;13.746;2024-03-02T14:42:01;10.60;74.80
83500;DHT22;73433;50.908;13.746;2024-03-02T14:44:29;10.60;74.60
83500;DHT22;73433;50.908;13.746;2024-03-02T14:46:56;10.60;74.50
83500;DHT22;73433;50.908;13.746;2024-03-02T14:49:26;10.60;74.60
83500;DHT22;73433;50.908;13.746;2024-03-02T14:51:53;10.50;74.50
83500;DHT22;73433;50.908;13.746;2024-03-02T14:54:21;10.50;74.70
83500;DHT22;73433;50.908;13.746;2024-03-02T14:56:48;10.50;74.70
83500;DHT22;73433;50.908;13.746;2024-03-02T14:59:16;10.40;75.10
83500;DHT22;73433;50.908;13.746;2024-03-02T15:01:44;10.40;75.30
83500;DHT22;73433;50.908;13.746;2024-03-02T15:04:11;10.40;75.70
83500;DHT22;73433;50.908;13.746;2024-03-02T15:06:39;10.40;75.50
83500;DHT22;73433;50.908;13.746;2024-03-02T15:09:07;10.30;75.40
83500;DHT22;73433;50.908;13.746;2024-03-02T15:11:35;10.30;75.50
83500;DHT22;73433;50.908;13.746;2024-03-02T15:14:02;10.30;75.60
83500;DHT22;73433;50.908;13.746;2024-03-02T15:16:29;10.20;75.70
83500;DHT22;73433;50.908;13.746;2024-03-02T15:18:57;10.10;75.80
83500;DHT22;73433;50.908;13.746;2024-03-02T15:21:24;10.10;76.10
83500;DHT22;73433;50.908;13.746;2024-03-02T15:23:51;10.10;76.30
83500;DHT22;73433;50.908;13.746;2024-03-02T15:26:18;10.00;76.20
83500;DHT22;73433;50.908;13.746;2024-03-02T15:28:46;10.00;76.40
83500;DHT22;73433;50.908;13.746;2024-03-02T15:31:13;9.90;76.40
83500;DHT22;73433;50.908;13.746;2024-03-02T15:33:40;9.90;76.50
83500;DHT22;73433;50.908;13.746;2024-03-02T15:36:07;9.80;76.70
83500;DHT22;73433;50.908;13.746;2024-03-02T15:38:35;9.80;76.90
83500;DHT22;73433;50.908;13.746;2024-03-02T15:41:08;9.70;77.00
83500;DHT22;73433;50.908;13.746;2024-03-02T15:43:35;9.70;77.20